sensor_id;sensor_type;location;lat;lon;timestamp;P1;durP1;ratioP1;P2;durP2;ratioP2
2622;SDS011;1321;48.690;9.022;2022-12-05T00:02:01;17.85;;;10.40;;
2622;SDS011;1321;48.690;9.022;2022-12-05T00:04:29;16.83;;;10.43;;
2622;SDS011;1321;48.690;9.022;2022-12-05T00:06:58;16.10;;;10.70;;
2622;SDS011;1321;48.690;9.022;2022-12-05T00:09:26;17.42;;;10.35;;
2622;SDS011;1321;48.690;9.022;2022-12-05T00:11:54;16.17;;;10.35;;
2622;SDS011;1321;48.690;9.022;2022-12-05T00:14:24;14.35;;;11.02;;
2622;SDS011;1321;48.690;9.022;2022-12-05T00:16:52;14.00;;;11.27;;
2622;SDS011;1321;48.690;9.022;2022-12-05T00:19:21;14.68;;;10.43;;
2622;SDS011;1321;48.690;9.022;2022-12-05T00:21:49;15.02;;;11.10;;
2622;SDS011;1321;48.690;9.022;2022-12-05T00:24:18;15.13;;;9.30;;
2622;SDS011;1321;48.690;9.022;2022-12-05T00:26:47;19.67;;;11.45;;
2622;SDS011;1321;48.690;9.022;2022-12-05T00:29:15;16.95;;;10.80;;
2622;SDS011;1321;48.690;9.022;2022-12-05T00:31:45;16.67;;;10.07;;
2622;SDS011;1321;48.690;9.022;2022-12-05T00:34:13;15.40;;;11.23;;
2622;SDS011;1321;48.690;9.022;2022-12-05T00:36:41;15.07;;;9.60;;
2622;SDS011;1321;48.690;9.022;2022-12-05T00:39:10;10.52;;;8.90;;
2622;SDS011;1321;48.690;9.022;2022-12-05T00:41:39;12.55;;;9.48;;
2622;SDS011;1321;48.690;9.022;2022-12-05T00:44:09;12.27;;;9.30;;
2622;SDS011;1321;48.690;9.022;2022-12-05T00:46:38;12.95;;;9.55;;
2622;SDS011;1321;48.690;9.022;2022-12-05T00:49:09;13.98;;;9.02;;
2622;SDS011;1321;48.690;9.022;2022-12-05T00:51:38;9.85;;;8.73;;
2622;SDS011;1321;48.690;9.022;2022-12-05T00:54:09;14.70;;;9.32;;
2622;SDS011;1321;48.690;9.022;2022-12-05T00:56:38;15.60;;;9.98;;
2622;SDS011;1321;48.690;9.022;2022-12-05T00:59:07;11.65;;;8.98;;
2622;SDS011;1321;48.690;9.022;2022-12-05T01:01:39;11.60;;;9.15;;
2622;SDS011;1321;48.690;9.022;2022-12-05T01:04:10;9.90;;;8.63;;
2622;SDS011;1321;48.690;9.022;2022-12-05T01:06:40;11.70;;;8.23;;
2622;SDS011;1321;48.690;9.022;2022-12-05T01:09:10;13.95;;;8.98;;
2622;SDS011;1321;48.690;9.022;2022-12-05T01:11:40;14.38;;;9.15;;
2622;SDS011;1321;48.690;9.022;2022-12-05T01:14:10;11.80;;;10.30;;
2622;SDS011;1321;48.690;9.022;2022-12-05T01:16:40;13.52;;;8.30;;
2622;SDS011;1321;48.690;9.022;2022-12-05T01:19:12;14.05;;;9.85;;
2622;SDS011;1321;48.690;9.022;2022-12-05T01:21:41;12.15;;;9.38;;
2622;SDS011;1321;48.690;9.022;2022-12-05T01:24:10;15.02;;;9.05;;
2622;SDS011;1321;48.690;9.022;2022-12-05T01:26:39;10.65;;;7.88;;
2622;SDS011;1321;48.690;9.022;2022-12-05T01:29:08;12.63;;;9.88;;
2622;SDS011;1321;48.690;9.022;2022-12-05T01:31:37;12.10;;;9.18;;
2622;SDS011;1321;48.690;9.022;2022-12-05T01:34:06;16.77;;;10.70;;
2622;SDS011;1321;48.690;9.022;2022-12-05T01:36:38;15.43;;;9.18;;
2622;SDS011;1321;48.690;9.022;2022-12-05T01:39:08;13.25;;;9.13;;
2622;SDS011;1321;48.690;9.022;2022-12-05T01:41:37;16.63;;;9.70;;
2622;SDS011;1321;48.690;9.022;2022-12-05T01:47:14;14.98;;;9.23;;
2622;SDS011;1321;48.690;9.022;2022-12-05T01:49:44;13.02;;;10.07;;
2622;SDS011;1321;48.690;9.022;2022-12-05T01:52:14;14.52;;;10.68;;
2622;SDS011;1321;48.690;9.022;2022-12-05T01:54:45;18.27;;;10.65;;
2622;SDS011;1321;48.690;9.022;2022-12-05T01:57:16;15.25;;;10.13;;
2622;SDS011;1321;48.690;9.022;2022-12-05T01:59:46;18.05;;;10.43;;
2622;SDS011;1321;48.690;9.022;2022-12-05T02:02:18;19.75;;;10.73;;
2622;SDS011;1321;48.690;9.022;2022-12-05T02:04:47;17.10;;;12.05;;
2622;SDS011;1321;48.690;9.022;2022-12-05T02:07:25;17.65;;;10.02;;
2622;SDS011;1321;48.690;9.022;2022-12-05T02:09:54;17.70;;;11.75;;
2622;SDS011;1321;48.690;9.022;2022-12-05T02:12:22;17.95;;;12.02;;
2622;SDS011;1321;48.690;9.022;2022-12-05T02:14:56;14.43;;;9.68;;
2622;SDS011;1321;48.690;9.022;2022-12-05T02:17:34;14.50;;;9.73;;
2622;SDS011;1321;48.690;9.022;2022-12-05T02:20:17;17.20;;;10.75;;
2622;SDS011;1321;48.690;9.022;2022-12-05T02:23:14;18.70;;;11.88;;
2622;SDS011;1321;48.690;9.022;2022-12-05T02:29:12;16.35;;;11.38;;
2622;SDS011;1321;48.690;9.022;2022-12-05T02:32:09;22.75;;;11.95;;
2622;SDS011;1321;48.690;9.022;2022-12-05T02:34:43;22.23;;;11.75;;
2622;SDS011;1321;48.690;9.022;2022-12-05T02:37:22;21.35;;;12.02;;
2622;SDS011;1321;48.690;9.022;2022-12-05T02:39:59;16.08;;;11.00;;
2622;SDS011;1321;48.690;9.022;2022-12-05T02:42:32;15.45;;;11.73;;
2622;SDS011;1321;48.690;9.022;2022-12-05T02:45:09;15.57;;;11.02;;
2622;SDS011;1321;48.690;9.022;2022-12-05T02:47:41;14.25;;;10.90;;
2622;SDS011;1321;48.690;9.022;2022-12-05T02:50:12;17.20;;;11.43;;
2622;SDS011;1321;48.690;9.022;2022-12-05T02:52:45;17.10;;;11.55;;
2622;SDS011;1321;48.690;9.022;2022-12-05T02:55:15;16.70;;;12.52;;
2622;SDS011;1321;48.690;9.022;2022-12-05T02:57:47;16.60;;;10.85;;
2622;SDS011;1321;48.690;9.022;2022-12-05T03:00:20;16.85;;;10.77;;
2622;SDS011;1321;48.690;9.022;2022-12-05T03:02:49;19.15;;;12.00;;
2622;SDS011;1321;48.690;9.022;2022-12-05T03:05:24;16.33;;;11.70;;
2622;SDS011;1321;48.690;9.022;2022-12-05T03:07:59;14.82;;;11.10;;
2622;SDS011;1321;48.690;9.022;2022-12-05T03:10:31;16.25;;;11.38;;
2622;SDS011;1321;48.690;9.022;2022-12-05T03:13:02;13.30;;;10.43;;
2622;SDS011;1321;48.690;9.022;2022-12-05T03:15:36;15.55;;;10.68;;
2622;SDS011;1321;48.690;9.022;2022-12-05T03:18:08;19.70;;;11.88;;
2622;SDS011;1321;48.690;9.022;2022-12-05T03:20:42;18.98;;;11.10;;
2622;SDS011;1321;48.690;9.022;2022-12-05T03:23:15;17.30;;;11.00;;
2622;SDS011;1321;48.690;9.022;2022-12-05T03:25:49;16.85;;;11.48;;
2622;SDS011;1321;48.690;9.022;2022-12-05T03:28:22;17.88;;;11.18;;
2622;SDS011;1321;48.690;9.022;2022-12-05T03:30:58;13.88;;;11.18;;
2622;SDS011;1321;48.690;9.022;2022-12-05T03:33:34;18.63;;;11.23;;
2622;SDS011;1321;48.690;9.022;2022-12-05T03:36:08;16.10;;;10.93;;
2622;SDS011;1321;48.690;9.022;2022-12-05T03:38:43;20.48;;;12.38;;
2622;SDS011;1321;48.690;9.022;2022-12-05T03:41:17;16.67;;;11.55;;
2622;SDS011;1321;48.690;9.022;2022-12-05T03:43:51;14.13;;;11.35;;
2622;SDS011;1321;48.690;9.022;2022-12-05T03:46:25;14.27;;;11.30;;
2622;SDS011;1321;48.690;9.022;2022-12-05T03:48:57;15.77;;;10.48;;
2622;SDS011;1321;48.690;9.022;2022-12-05T03:51:33;13.60;;;9.77;;
2622;SDS011;1321;48.690;9.022;2022-12-05T03:54:05;16.42;;;10.80;;
2622;SDS011;1321;48.690;9.022;2022-12-05T03:56:38;12.35;;;10.65;;
2622;SDS011;1321;48.690;9.022;2022-12-05T03:59:12;14.57;;;10.73;;
2622;SDS011;1321;48.690;9.022;2022-12-05T04:01:46;17.25;;;11.13;;
2622;SDS011;1321;48.690;9.022;2022-12-05T04:04:20;14.63;;;9.18;;
2622;SDS011;1321;48.690;9.022;2022-12-05T04:06:53;11.40;;;9.85;;
2622;SDS011;1321;48.690;9.022;2022-12-05T04:09:26;12.30;;;9.77;;
2622;SDS011;1321;48.690;9.022;2022-12-05T04:11:58;13.27;;;10.40;;
2622;SDS011;1321;48.690;9.022;2022-12-05T04:14:31;13.15;;;10.60;;
2622;SDS011;1321;48.690;9.022;2022-12-05T04:17:04;14.52;;;10.77;;
2622;SDS011;1321;48.690;9.022;2022-12-05T04:19:36;16.25;;;10.20;;
2622;SDS011;1321;48.690;9.022;2022-12-05T04:22:25;14.77;;;10.27;;
2622;SDS011;1321;48.690;9.022;2022-12-05T04:24:54;13.30;;;10.68;;
2622;SDS011;1321;48.690;9.022;2022-12-05T04:27:45;10.13;;;9.07;;
2622;SDS011;1321;48.690;9.022;2022-12-05T04:30:19;14.23;;;11.27;;
2622;SDS011;1321;48.690;9.022;2022-12-05T04:32:51;14.55;;;10.23;;
2622;SDS011;1321;48.690;9.022;2022-12-05T04:35:27;17.27;;;10.77;;
2622;SDS011;1321;48.690;9.022;2022-12-05T04:37:59;13.52;;;10.35;;
2622;SDS011;1321;48.690;9.022;2022-12-05T04:40:32;13.75;;;9.93;;
2622;SDS011;1321;48.690;9.022;2022-12-05T04:43:05;16.52;;;10.93;;
2622;SDS011;1321;48.690;9.022;2022-12-05T04:45:34;13.82;;;9.35;;
2622;SDS011;1321;48.690;9.022;2022-12-05T04:48:06;11.07;;;9.68;;
2622;SDS011;1321;48.690;9.022;2022-12-05T04:50:38;15.23;;;10.35;;
2622;SDS011;1321;48.690;9.022;2022-12-05T04:53:08;13.13;;;10.25;;
2622;SDS011;1321;48.690;9.022;2022-12-05T04:55:39;11.43;;;10.23;;
2622;SDS011;1321;48.690;9.022;2022-12-05T04:58:13;12.32;;;9.10;;
2622;SDS011;1321;48.690;9.022;2022-12-05T05:00:45;10.52;;;9.25;;
2622;SDS011;1321;48.690;9.022;2022-12-05T05:03:20;12.27;;;10.02;;
2622;SDS011;1321;48.690;9.022;2022-12-05T05:05:53;10.52;;;8.95;;
2622;SDS011;1321;48.690;9.022;2022-12-05T05:08:23;10.27;;;8.98;;
2622;SDS011;1321;48.690;9.022;2022-12-05T05:10:57;10.43;;;9.45;;
2622;SDS011;1321;48.690;9.022;2022-12-05T05:13:33;13.68;;;9.30;;
2622;SDS011;1321;48.690;9.022;2022-12-05T05:16:01;11.90;;;9.43;;
2622;SDS011;1321;48.690;9.022;2022-12-05T05:18:31;10.10;;;9.10;;
2622;SDS011;1321;48.690;9.022;2022-12-05T05:20:59;12.82;;;10.80;;
2622;SDS011;1321;48.690;9.022;2022-12-05T05:23:28;12.07;;;9.68;;
2622;SDS011;1321;48.690;9.022;2022-12-05T05:25:57;10.07;;;9.05;;
2622;SDS011;1321;48.690;9.022;2022-12-05T05:28:26;12.85;;;11.05;;
2622;SDS011;1321;48.690;9.022;2022-12-05T05:30:54;11.82;;;9.18;;
2622;SDS011;1321;48.690;9.022;2022-12-05T05:33:28;11.02;;;9.48;;
2622;SDS011;1321;48.690;9.022;2022-12-05T05:36:01;10.40;;;9.32;;
2622;SDS011;1321;48.690;9.022;2022-12-05T05:38:33;10.38;;;9.27;;
2622;SDS011;1321;48.690;9.022;2022-12-05T05:41:02;11.45;;;9.23;;
2622;SDS011;1321;48.690;9.022;2022-12-05T05:43:31;9.90;;;9.00;;
2622;SDS011;1321;48.690;9.022;2022-12-05T05:46:01;10.38;;;9.38;;
2622;SDS011;1321;48.690;9.022;2022-12-05T05:48:30;10.48;;;9.48;;
2622;SDS011;1321;48.690;9.022;2022-12-05T05:50:58;9.38;;;8.57;;
2622;SDS011;1321;48.690;9.022;2022-12-05T05:53:28;9.63;;;8.63;;
2622;SDS011;1321;48.690;9.022;2022-12-05T05:56:00;8.50;;;7.65;;
2622;SDS011;1321;48.690;9.022;2022-12-05T05:58:29;9.38;;;8.48;;
2622;SDS011;1321;48.690;9.022;2022-12-05T06:01:01;8.65;;;7.85;;
2622;SDS011;1321;48.690;9.022;2022-12-05T06:03:29;9.50;;;8.60;;
2622;SDS011;1321;48.690;9.022;2022-12-05T06:05:58;8.75;;;8.02;;
2622;SDS011;1321;48.690;9.022;2022-12-05T06:08:30;10.02;;;9.07;;
2622;SDS011;1321;48.690;9.022;2022-12-05T06:10:59;10.10;;;8.73;;
2622;SDS011;1321;48.690;9.022;2022-12-05T06:13:33;10.73;;;9.70;;
2622;SDS011;1321;48.690;9.022;2022-12-05T06:16:03;9.55;;;8.57;;
2622;SDS011;1321;48.690;9.022;2022-12-05T06:18:33;10.38;;;9.38;;
2622;SDS011;1321;48.690;9.022;2022-12-05T06:21:01;9.20;;;8.30;;
2622;SDS011;1321;48.690;9.022;2022-12-05T06:23:32;9.25;;;8.35;;
2622;SDS011;1321;48.690;9.022;2022-12-05T06:26:02;8.30;;;7.60;;
2622;SDS011;1321;48.690;9.022;2022-12-05T06:28:31;9.10;;;8.20;;
2622;SDS011;1321;48.690;9.022;2022-12-05T06:31:05;9.98;;;9.07;;
2622;SDS011;1321;48.690;9.022;2022-12-05T06:33:34;9.65;;;8.50;;
2622;SDS011;1321;48.690;9.022;2022-12-05T06:36:03;10.93;;;9.73;;
2622;SDS011;1321;48.690;9.022;2022-12-05T06:38:34;8.95;;;8.25;;
2622;SDS011;1321;48.690;9.022;2022-12-05T06:41:08;10.27;;;9.27;;
2622;SDS011;1321;48.690;9.022;2022-12-05T06:43:38;11.23;;;10.07;;
2622;SDS011;1321;48.690;9.022;2022-12-05T06:46:06;8.93;;;8.13;;
2622;SDS011;1321;48.690;9.022;2022-12-05T06:48:36;9.00;;;8.30;;
2622;SDS011;1321;48.690;9.022;2022-12-05T06:51:04;11.38;;;8.90;;
2622;SDS011;1321;48.690;9.022;2022-12-05T06:53:36;9.63;;;8.55;;
2622;SDS011;1321;48.690;9.022;2022-12-05T06:56:05;9.57;;;8.75;;
2622;SDS011;1321;48.690;9.022;2022-12-05T06:58:37;9.85;;;8.90;;
2622;SDS011;1321;48.690;9.022;2022-12-05T07:01:08;10.93;;;9.93;;
2622;SDS011;1321;48.690;9.022;2022-12-05T07:03:56;8.63;;;7.93;;
2622;SDS011;1321;48.690;9.022;2022-12-05T07:06:25;9.90;;;9.10;;
2622;SDS011;1321;48.690;9.022;2022-12-05T07:08:55;10.32;;;9.32;;
2622;SDS011;1321;48.690;9.022;2022-12-05T07:11:24;10.23;;;9.38;;
2622;SDS011;1321;48.690;9.022;2022-12-05T07:13:53;10.38;;;9.48;;
2622;SDS011;1321;48.690;9.022;2022-12-05T07:16:21;11.30;;;10.30;;
2622;SDS011;1321;48.690;9.022;2022-12-05T07:18:50;9.73;;;8.75;;
2622;SDS011;1321;48.690;9.022;2022-12-05T07:21:19;9.52;;;8.75;;
2622;SDS011;1321;48.690;9.022;2022-12-05T07:23:48;9.52;;;8.82;;
2622;SDS011;1321;48.690;9.022;2022-12-05T07:26:18;9.90;;;9.00;;
2622;SDS011;1321;48.690;9.022;2022-12-05T07:28:48;8.80;;;7.95;;
2622;SDS011;1321;48.690;9.022;2022-12-05T07:31:19;8.93;;;8.23;;
2622;SDS011;1321;48.690;9.022;2022-12-05T07:33:48;12.18;;;9.00;;
2622;SDS011;1321;48.690;9.022;2022-12-05T07:36:19;12.18;;;9.95;;
2622;SDS011;1321;48.690;9.022;2022-12-05T07:38:53;9.40;;;8.50;;
2622;SDS011;1321;48.690;9.022;2022-12-05T07:41:24;10.40;;;9.40;;
2622;SDS011;1321;48.690;9.022;2022-12-05T07:43:54;10.35;;;8.25;;
2622;SDS011;1321;48.690;9.022;2022-12-05T07:46:24;9.20;;;8.40;;
2622;SDS011;1321;48.690;9.022;2022-12-05T07:48:54;8.80;;;8.00;;
2622;SDS011;1321;48.690;9.022;2022-12-05T07:51:23;10.02;;;9.07;;
2622;SDS011;1321;48.690;9.022;2022-12-05T07:53:51;10.40;;;8.95;;
2622;SDS011;1321;48.690;9.022;2022-12-05T07:56:19;10.13;;;9.32;;
2622;SDS011;1321;48.690;9.022;2022-12-05T07:58:50;9.80;;;8.70;;
2622;SDS011;1321;48.690;9.022;2022-12-05T08:01:20;8.90;;;8.05;;
2622;SDS011;1321;48.690;9.022;2022-12-05T08:03:51;9.00;;;8.13;;
2622;SDS011;1321;48.690;9.022;2022-12-05T08:06:21;8.13;;;7.63;;
2622;SDS011;1321;48.690;9.022;2022-12-05T08:08:51;10.43;;;8.73;;
2622;SDS011;1321;48.690;9.022;2022-12-05T08:11:21;8.20;;;7.50;;
2622;SDS011;1321;48.690;9.022;2022-12-05T08:13:52;9.70;;;8.70;;
2622;SDS011;1321;48.690;9.022;2022-12-05T08:16:22;9.23;;;8.43;;
2622;SDS011;1321;48.690;9.022;2022-12-05T08:18:53;9.30;;;8.52;;
2622;SDS011;1321;48.690;9.022;2022-12-05T08:21:22;9.55;;;8.65;;
2622;SDS011;1321;48.690;9.022;2022-12-05T08:23:51;9.38;;;8.50;;
2622;SDS011;1321;48.690;9.022;2022-12-05T08:26:21;10.20;;;9.25;;
2622;SDS011;1321;48.690;9.022;2022-12-05T08:28:52;9.48;;;8.70;;
2622;SDS011;1321;48.690;9.022;2022-12-05T08:31:22;9.15;;;8.35;;
2622;SDS011;1321;48.690;9.022;2022-12-05T08:33:55;8.68;;;8.02;;
2622;SDS011;1321;48.690;9.022;2022-12-05T08:36:25;9.65;;;8.85;;
2622;SDS011;1321;48.690;9.022;2022-12-05T08:38:54;9.25;;;8.45;;
2622;SDS011;1321;48.690;9.022;2022-12-05T08:41:24;10.35;;;9.65;;
2622;SDS011;1321;48.690;9.022;2022-12-05T08:43:57;9.65;;;8.95;;
2622;SDS011;1321;48.690;9.022;2022-12-05T08:46:26;9.63;;;8.90;;
2622;SDS011;1321;48.690;9.022;2022-12-05T08:48:55;9.48;;;8.70;;
2622;SDS011;1321;48.690;9.022;2022-12-05T08:51:23;9.20;;;8.40;;
2622;SDS011;1321;48.690;9.022;2022-12-05T08:53:52;9.55;;;8.75;;
2622;SDS011;1321;48.690;9.022;2022-12-05T08:56:21;9.40;;;8.68;;
2622;SDS011;1321;48.690;9.022;2022-12-05T08:58:52;9.35;;;8.65;;
2622;SDS011;1321;48.690;9.022;2022-12-05T09:01:32;9.35;;;8.52;;
2622;SDS011;1321;48.690;9.022;2022-12-05T09:04:04;9.70;;;9.00;;
2622;SDS011;1321;48.690;9.022;2022-12-05T09:06:35;10.60;;;9.65;;
2622;SDS011;1321;48.690;9.022;2022-12-05T09:09:05;10.30;;;9.30;;
2622;SDS011;1321;48.690;9.022;2022-12-05T09:11:38;9.40;;;8.60;;
2622;SDS011;1321;48.690;9.022;2022-12-05T09:14:11;9.27;;;8.63;;
2622;SDS011;1321;48.690;9.022;2022-12-05T09:16:42;10.93;;;10.02;;
2622;SDS011;1321;48.690;9.022;2022-12-05T09:19:12;9.40;;;8.60;;
2622;SDS011;1321;48.690;9.022;2022-12-05T09:21:42;9.60;;;8.90;;
2622;SDS011;1321;48.690;9.022;2022-12-05T09:24:10;10.00;;;9.10;;
2622;SDS011;1321;48.690;9.022;2022-12-05T09:26:39;11.35;;;10.20;;
2622;SDS011;1321;48.690;9.022;2022-12-05T09:29:08;9.10;;;8.40;;
2622;SDS011;1321;48.690;9.022;2022-12-05T09:31:44;8.63;;;8.00;;
2622;SDS011;1321;48.690;9.022;2022-12-05T09:34:14;9.45;;;8.80;;
2622;SDS011;1321;48.690;9.022;2022-12-05T09:36:43;9.67;;;8.90;;
2622;SDS011;1321;48.690;9.022;2022-12-05T09:39:15;9.32;;;8.73;;
2622;SDS011;1321;48.690;9.022;2022-12-05T09:41:46;9.63;;;8.73;;
2622;SDS011;1321;48.690;9.022;2022-12-05T09:44:35;10.32;;;9.15;;
2622;SDS011;1321;48.690;9.022;2022-12-05T09:47:15;9.80;;;8.90;;
2622;SDS011;1321;48.690;9.022;2022-12-05T09:49:52;9.93;;;9.13;;
2622;SDS011;1321;48.690;9.022;2022-12-05T09:52:23;9.80;;;9.00;;
2622;SDS011;1321;48.690;9.022;2022-12-05T09:54:55;9.20;;;8.40;;
2622;SDS011;1321;48.690;9.022;2022-12-05T09:57:29;9.23;;;8.52;;
2622;SDS011;1321;48.690;9.022;2022-12-05T10:00:02;8.80;;;8.03;;
2622;SDS011;1321;48.690;9.022;2022-12-05T10:02:37;8.30;;;7.70;;
2622;SDS011;1321;48.690;9.022;2022-12-05T10:05:11;8.60;;;7.90;;
2622;SDS011;1321;48.690;9.022;2022-12-05T10:07:50;7.53;;;7.13;;
2622;SDS011;1321;48.690;9.022;2022-12-05T10:10:25;7.60;;;7.00;;
2622;SDS011;1321;48.690;9.022;2022-12-05T10:13:06;8.55;;;8.02;;
2622;SDS011;1321;48.690;9.022;2022-12-05T10:15:59;9.52;;;8.80;;
2622;SDS011;1321;48.690;9.022;2022-12-05T10:18:35;8.07;;;7.38;;
2622;SDS011;1321;48.690;9.022;2022-12-05T10:21:09;8.98;;;8.27;;
2622;SDS011;1321;48.690;9.022;2022-12-05T10:23:47;8.77;;;8.27;;
2622;SDS011;1321;48.690;9.022;2022-12-05T10:26:25;8.35;;;7.75;;
2622;SDS011;1321;48.690;9.022;2022-12-05T10:28:58;8.80;;;8.20;;
2622;SDS011;1321;48.690;9.022;2022-12-05T10:31:36;9.17;;;8.47;;
2622;SDS011;1321;48.690;9.022;2022-12-05T10:34:10;8.87;;;8.17;;
2622;SDS011;1321;48.690;9.022;2022-12-05T10:36:43;9.17;;;8.27;;
2622;SDS011;1321;48.690;9.022;2022-12-05T10:39:20;9.10;;;8.40;;
2622;SDS011;1321;48.690;9.022;2022-12-05T10:41:49;9.30;;;8.50;;
2622;SDS011;1321;48.690;9.022;2022-12-05T10:44:18;9.60;;;8.90;;
2622;SDS011;1321;48.690;9.022;2022-12-05T10:46:47;7.50;;;6.97;;
2622;SDS011;1321;48.690;9.022;2022-12-05T10:49:17;7.27;;;6.80;;
2622;SDS011;1321;48.690;9.022;2022-12-05T10:51:47;6.95;;;6.55;;
2622;SDS011;1321;48.690;9.022;2022-12-05T10:54:18;6.60;;;6.20;;
2622;SDS011;1321;48.690;9.022;2022-12-05T10:56:50;6.80;;;6.50;;
2622;SDS011;1321;48.690;9.022;2022-12-05T10:59:20;6.63;;;6.13;;
2622;SDS011;1321;48.690;9.022;2022-12-05T11:01:51;6.10;;;5.72;;
2622;SDS011;1321;48.690;9.022;2022-12-05T11:04:25;6.03;;;5.67;;
2622;SDS011;1321;48.690;9.022;2022-12-05T11:06:56;5.10;;;4.90;;
2622;SDS011;1321;48.690;9.022;2022-12-05T11:09:27;6.18;;;5.60;;
2622;SDS011;1321;48.690;9.022;2022-12-05T11:14:55;6.23;;;5.83;;
2622;SDS011;1321;48.690;9.022;2022-12-05T11:17:29;6.60;;;6.20;;
2622;SDS011;1321;48.690;9.022;2022-12-05T11:20:01;5.50;;;5.20;;
2622;SDS011;1321;48.690;9.022;2022-12-05T11:22:52;6.20;;;5.70;;
2622;SDS011;1321;48.690;9.022;2022-12-05T11:25:27;7.03;;;6.53;;
2622;SDS011;1321;48.690;9.022;2022-12-05T11:28:00;6.00;;;5.47;;
2622;SDS011;1321;48.690;9.022;2022-12-05T11:30:56;5.85;;;5.55;;
2622;SDS011;1321;48.690;9.022;2022-12-05T11:33:26;5.80;;;5.40;;
2622;SDS011;1321;48.690;9.022;2022-12-05T11:35:58;5.30;;;5.00;;
2622;SDS011;1321;48.690;9.022;2022-12-05T11:38:31;6.30;;;5.90;;
2622;SDS011;1321;48.690;9.022;2022-12-05T11:41:08;5.40;;;5.10;;
2622;SDS011;1321;48.690;9.022;2022-12-05T11:46:44;5.85;;;5.45;;
2622;SDS011;1321;48.690;9.022;2022-12-05T11:49:36;5.40;;;5.00;;
2622;SDS011;1321;48.690;9.022;2022-12-05T11:52:22;5.77;;;5.40;;
2622;SDS011;1321;48.690;9.022;2022-12-05T11:55:09;5.57;;;5.17;;
2622;SDS011;1321;48.690;9.022;2022-12-05T11:57:55;5.77;;;5.47;;
2622;SDS011;1321;48.690;9.022;2022-12-05T12:00:45;5.63;;;5.00;;
2622;SDS011;1321;48.690;9.022;2022-12-05T12:03:36;5.15;;;4.95;;
2622;SDS011;1321;48.690;9.022;2022-12-05T12:06:19;5.70;;;5.30;;
2622;SDS011;1321;48.690;9.022;2022-12-05T12:08:58;4.70;;;4.50;;
2622;SDS011;1321;48.690;9.022;2022-12-05T12:11:40;5.90;;;5.50;;
2622;SDS011;1321;48.690;9.022;2022-12-05T12:14:13;5.80;;;5.50;;
2622;SDS011;1321;48.690;9.022;2022-12-05T12:16:49;5.87;;;5.57;;
2622;SDS011;1321;48.690;9.022;2022-12-05T12:19:30;5.25;;;4.95;;
2622;SDS011;1321;48.690;9.022;2022-12-05T12:22:19;6.67;;;6.30;;
2622;SDS011;1321;48.690;9.022;2022-12-05T12:25:01;5.83;;;5.33;;
2622;SDS011;1321;48.690;9.022;2022-12-05T12:27:42;6.63;;;6.10;;
2622;SDS011;1321;48.690;9.022;2022-12-05T12:30:20;5.70;;;5.40;;
2622;SDS011;1321;48.690;9.022;2022-12-05T12:32:57;5.40;;;5.03;;
2622;SDS011;1321;48.690;9.022;2022-12-05T12:35:32;5.50;;;5.20;;
2622;SDS011;1321;48.690;9.022;2022-12-05T12:38:20;5.97;;;5.40;;
2622;SDS011;1321;48.690;9.022;2022-12-05T12:41:09;5.50;;;5.20;;
2622;SDS011;1321;48.690;9.022;2022-12-05T12:43:47;5.70;;;5.30;;
2622;SDS011;1321;48.690;9.022;2022-12-05T12:46:29;5.80;;;5.40;;
2622;SDS011;1321;48.690;9.022;2022-12-05T12:49:13;5.63;;;5.23;;
2622;SDS011;1321;48.690;9.022;2022-12-05T12:51:53;5.80;;;5.30;;
2622;SDS011;1321;48.690;9.022;2022-12-05T12:54:32;5.77;;;4.70;;
2622;SDS011;1321;48.690;9.022;2022-12-05T12:57:33;4.50;;;4.30;;
2622;SDS011;1321;48.690;9.022;2022-12-05T13:00:21;5.03;;;4.72;;
2622;SDS011;1321;48.690;9.022;2022-12-05T13:02:53;4.83;;;4.53;;
2622;SDS011;1321;48.690;9.022;2022-12-05T13:05:30;5.30;;;4.80;;
2622;SDS011;1321;48.690;9.022;2022-12-05T13:08:02;4.70;;;4.40;;
2622;SDS011;1321;48.690;9.022;2022-12-05T13:10:34;4.35;;;4.15;;
2622;SDS011;1321;48.690;9.022;2022-12-05T13:13:09;6.10;;;5.47;;
2622;SDS011;1321;48.690;9.022;2022-12-05T13:15:43;4.53;;;4.33;;
2622;SDS011;1321;48.690;9.022;2022-12-05T13:18:15;5.07;;;4.70;;
2622;SDS011;1321;48.690;9.022;2022-12-05T13:20:45;5.20;;;4.87;;
2622;SDS011;1321;48.690;9.022;2022-12-05T13:23:18;4.70;;;4.40;;
2622;SDS011;1321;48.690;9.022;2022-12-05T13:25:49;4.57;;;4.27;;
2622;SDS011;1321;48.690;9.022;2022-12-05T13:28:24;5.00;;;4.70;;
2622;SDS011;1321;48.690;9.022;2022-12-05T13:30:55;4.80;;;4.50;;
2622;SDS011;1321;48.690;9.022;2022-12-05T13:33:28;4.40;;;4.20;;
2622;SDS011;1321;48.690;9.022;2022-12-05T13:36:04;4.50;;;4.30;;
2622;SDS011;1321;48.690;9.022;2022-12-05T13:38:59;5.13;;;4.82;;
2622;SDS011;1321;48.690;9.022;2022-12-05T13:41:47;4.70;;;4.37;;
2622;SDS011;1321;48.690;9.022;2022-12-05T13:44:38;4.67;;;4.27;;
2622;SDS011;1321;48.690;9.022;2022-12-05T13:47:20;5.00;;;4.70;;
2622;SDS011;1321;48.690;9.022;2022-12-05T13:49:55;4.53;;;4.33;;
2622;SDS011;1321;48.690;9.022;2022-12-05T13:52:29;4.47;;;4.10;;
2622;SDS011;1321;48.690;9.022;2022-12-05T13:55:11;4.37;;;4.17;;
2622;SDS011;1321;48.690;9.022;2022-12-05T13:57:51;4.63;;;4.33;;
2622;SDS011;1321;48.690;9.022;2022-12-05T14:00:26;4.93;;;4.53;;
2622;SDS011;1321;48.690;9.022;2022-12-05T14:02:57;3.77;;;3.57;;
2622;SDS011;1321;48.690;9.022;2022-12-05T14:05:37;4.67;;;4.20;;
2622;SDS011;1321;48.690;9.022;2022-12-05T14:11:30;3.50;;;3.30;;
2622;SDS011;1321;48.690;9.022;2022-12-05T14:13:58;3.93;;;3.30;;
2622;SDS011;1321;48.690;9.022;2022-12-05T14:19:21;2.83;;;2.73;;
2622;SDS011;1321;48.690;9.022;2022-12-05T14:22:16;2.40;;;2.20;;
2622;SDS011;1321;48.690;9.022;2022-12-05T14:24:59;5.33;;;2.80;;
2622;SDS011;1321;48.690;9.022;2022-12-05T14:27:40;2.83;;;2.63;;
2622;SDS011;1321;48.690;9.022;2022-12-05T14:30:18;3.20;;;3.10;;
2622;SDS011;1321;48.690;9.022;2022-12-05T14:32:51;2.83;;;2.63;;
2622;SDS011;1321;48.690;9.022;2022-12-05T14:35:23;2.53;;;2.43;;
2622;SDS011;1321;48.690;9.022;2022-12-05T14:37:55;3.23;;;3.03;;
2622;SDS011;1321;48.690;9.022;2022-12-05T14:40:28;2.80;;;2.70;;
2622;SDS011;1321;48.690;9.022;2022-12-05T14:42:59;2.77;;;2.57;;
2622;SDS011;1321;48.690;9.022;2022-12-05T14:45:31;2.40;;;2.30;;
2622;SDS011;1321;48.690;9.022;2022-12-05T14:48:03;5.97;;;3.90;;
2622;SDS011;1321;48.690;9.022;2022-12-05T14:50:49;2.90;;;2.80;;
2622;SDS011;1321;48.690;9.022;2022-12-05T14:53:24;3.47;;;3.27;;
2622;SDS011;1321;48.690;9.022;2022-12-05T14:56:13;2.83;;;2.73;;
2622;SDS011;1321;48.690;9.022;2022-12-05T14:58:46;2.80;;;2.70;;
2622;SDS011;1321;48.690;9.022;2022-12-05T15:01:20;3.57;;;3.37;;
2622;SDS011;1321;48.690;9.022;2022-12-05T15:04:03;2.70;;;2.50;;
2622;SDS011;1321;48.690;9.022;2022-12-05T15:06:41;3.30;;;3.03;;
2622;SDS011;1321;48.690;9.022;2022-12-05T15:09:29;4.03;;;3.07;;
2622;SDS011;1321;48.690;9.022;2022-12-05T15:12:05;4.57;;;3.20;;
2622;SDS011;1321;48.690;9.022;2022-12-05T15:14:43;3.53;;;2.77;;
2622;SDS011;1321;48.690;9.022;2022-12-05T15:17:21;2.73;;;2.50;;
2622;SDS011;1321;48.690;9.022;2022-12-05T15:19:58;3.40;;;2.90;;
2622;SDS011;1321;48.690;9.022;2022-12-05T15:22:31;2.70;;;2.60;;
2622;SDS011;1321;48.690;9.022;2022-12-05T15:27:57;3.23;;;3.03;;
2622;SDS011;1321;48.690;9.022;2022-12-05T15:30:27;2.90;;;2.70;;
2622;SDS011;1321;48.690;9.022;2022-12-05T15:32:57;2.93;;;2.77;;
2622;SDS011;1321;48.690;9.022;2022-12-05T15:35:27;2.90;;;2.80;;
2622;SDS011;1321;48.690;9.022;2022-12-05T15:37:59;3.03;;;2.83;;
2622;SDS011;1321;48.690;9.022;2022-12-05T15:40:32;3.20;;;3.00;;
2622;SDS011;1321;48.690;9.022;2022-12-05T15:43:20;3.70;;;3.40;;
2622;SDS011;1321;48.690;9.022;2022-12-05T15:46:07;3.03;;;2.83;;
2622;SDS011;1321;48.690;9.022;2022-12-05T15:48:46;3.40;;;3.10;;
2622;SDS011;1321;48.690;9.022;2022-12-05T15:51:15;3.80;;;3.43;;
2622;SDS011;1321;48.690;9.022;2022-12-05T15:53:45;2.90;;;2.70;;
2622;SDS011;1321;48.690;9.022;2022-12-05T15:56:18;2.90;;;2.70;;
2622;SDS011;1321;48.690;9.022;2022-12-05T15:58:51;3.40;;;3.20;;
2622;SDS011;1321;48.690;9.022;2022-12-05T16:01:23;3.40;;;3.10;;
2622;SDS011;1321;48.690;9.022;2022-12-05T16:03:53;2.90;;;2.80;;
2622;SDS011;1321;48.690;9.022;2022-12-05T16:06:26;5.03;;;3.60;;